createdAt,value
2022-12-23T00:01:28.663Z,8.80
2022-12-23T00:04:00.355Z,8.60
2022-12-23T00:06:28.283Z,8.70
2022-12-23T00:08:58.899Z,8.97
2022-12-23T00:11:29.108Z,8.77
2022-12-23T00:14:21.104Z,7.90
2022-12-23T00:16:51.377Z,9.53
2022-12-23T00:19:19.231Z,8.07
2022-12-23T00:21:48.562Z,9.40
2022-12-23T00:24:16.203Z,9.03
2022-12-23T00:26:43.773Z,8.53
2022-12-23T00:29:11.536Z,8.37
2022-12-23T00:31:39.141Z,9.73
2022-12-23T00:34:06.655Z,7.83
2022-12-23T00:36:37.321Z,8.00
2022-12-23T00:39:24.387Z,8.03
2022-12-23T00:42:10.266Z,7.47
2022-12-23T00:44:37.913Z,7.60
2022-12-23T00:47:05.542Z,8.00
2022-12-23T00:49:42.162Z,7.90
2022-12-23T00:52:15.848Z,7.57
2022-12-23T00:54:43.777Z,8.67
2022-12-23T00:57:12.087Z,8.87
2022-12-23T00:59:39.713Z,7.70
2022-12-23T01:02:25.734Z,8.40
2022-12-23T01:05:11.880Z,10.37
2022-12-23T01:07:40.509Z,9.10
2022-12-23T01:10:09.310Z,11.07
2022-12-23T01:12:36.975Z,9.40
2022-12-23T01:15:05.587Z,10.70
2022-12-23T01:17:33.157Z,10.40
2022-12-23T01:20:00.792Z,10.03
2022-12-23T01:22:28.318Z,9.20
2022-12-23T01:24:55.947Z,10.80
2022-12-23T01:27:23.593Z,12.43
2022-12-23T01:29:51.248Z,11.70
2022-12-23T01:32:20.653Z,14.07
2022-12-23T01:34:50.284Z,13.00
2022-12-23T01:37:17.971Z,15.13
2022-12-23T01:39:45.541Z,14.43
2022-12-23T01:42:39.434Z,14.60
2022-12-23T01:45:27.603Z,15.87
2022-12-23T01:48:10.271Z,16.10
2022-12-23T01:51:06.111Z,17.00
2022-12-23T01:53:50.605Z,18.60
2022-12-23T01:56:41.391Z,17.80
2022-12-23T01:59:36.364Z,18.77
2022-12-23T02:02:22.610Z,19.57
2022-12-23T02:04:52.624Z,20.10
2022-12-23T02:07:40.535Z,23.27
2022-12-23T02:10:09.651Z,23.83
2022-12-23T02:14:01.233Z,21.30
2022-12-23T02:16:41.123Z,23.27
2022-12-23T02:19:44.867Z,24.90
2022-12-23T02:23:17.137Z,23.47
2022-12-23T02:27:14.208Z,23.27
2022-12-23T02:30:27.045Z,24.80
2022-12-23T02:33:45.212Z,24.57
2022-12-23T02:36:34.148Z,21.97
2022-12-23T02:39:35.147Z,24.77
2022-12-23T02:43:13.553Z,21.67
2022-12-23T02:46:05.188Z,23.13
2022-12-23T02:49:23.792Z,23.10
2022-12-23T02:51:59.205Z,21.60
2022-12-23T02:54:48.732Z,22.50
2022-12-23T02:57:27.290Z,23.27
2022-12-23T03:00:00.119Z,23.57
2022-12-23T03:02:28.083Z,23.60
2022-12-23T03:04:55.752Z,23.70
2022-12-23T03:07:43.838Z,24.03
2022-12-23T03:11:14.922Z,22.97
2022-12-23T03:14:41.361Z,23.30
2022-12-23T03:18:02.968Z,20.50
2022-12-23T03:21:11.093Z,20.97
2022-12-23T03:23:58.026Z,22.03
2022-12-23T03:26:54.834Z,20.43
2022-12-23T03:29:45.522Z,20.63
2022-12-23T03:32:17.133Z,22.43
2022-12-23T03:34:52.468Z,23.47
2022-12-23T03:37:27.302Z,25.50
2022-12-23T03:40:44.080Z,24.60
2022-12-23T03:43:54.895Z,24.77
2022-12-23T03:46:48.828Z,23.80
2022-12-23T03:49:48.094Z,25.43
2022-12-23T03:52:39.198Z,21.93
2022-12-23T03:55:26.598Z,22.13
2022-12-23T03:58:17.974Z,21.67
2022-12-23T04:01:23.811Z,22.50
2022-12-23T04:04:21.099Z,22.87
2022-12-23T04:07:22.221Z,22.37
2022-12-23T04:09:54.354Z,25.90
2022-12-23T04:12:29.932Z,26.40
2022-12-23T04:14:58.343Z,24.43
2022-12-23T04:17:26.060Z,23.60
2022-12-23T04:19:54.819Z,23.23
2022-12-23T04:22:22.477Z,24.70
2022-12-23T04:24:50.067Z,24.90
2022-12-23T04:27:18.344Z,25.03
2022-12-23T04:29:46.784Z,22.17
2022-12-23T04:32:14.457Z,20.87
2022-12-23T04:34:41.969Z,20.00
2022-12-23T04:37:10.978Z,19.50
2022-12-23T04:39:38.600Z,19.77
2022-12-23T04:42:06.325Z,19.30
2022-12-23T04:44:33.917Z,21.37
2022-12-23T04:47:01.607Z,20.33
2022-12-23T04:49:29.251Z,19.20
2022-12-23T04:51:56.947Z,22.17
2022-12-23T04:54:24.829Z,22.47
2022-12-23T04:56:52.452Z,21.90
2022-12-23T04:59:20.245Z,21.90
2022-12-23T05:01:48.190Z,22.27
2022-12-23T05:04:16.068Z,20.13
2022-12-23T05:06:43.768Z,18.50
2022-12-23T05:09:11.520Z,17.77
2022-12-23T05:11:42.353Z,19.30
2022-12-23T05:14:13.737Z,19.30
2022-12-23T05:16:41.456Z,17.90
2022-12-23T05:19:11.029Z,18.33
2022-12-23T05:21:38.846Z,17.50
2022-12-23T05:24:06.915Z,17.37
2022-12-23T05:26:34.522Z,16.57
2022-12-23T05:29:02.164Z,14.73
2022-12-23T05:31:29.771Z,15.30
2022-12-23T05:34:02.309Z,14.90
2022-12-23T05:36:33.641Z,13.40
2022-12-23T05:39:01.246Z,15.60
2022-12-23T05:41:29.016Z,15.23
2022-12-23T05:43:56.543Z,15.90
2022-12-23T05:46:26.900Z,15.33
2022-12-23T05:48:55.059Z,14.60
2022-12-23T05:51:22.901Z,14.93
2022-12-23T05:53:51.067Z,16.00
2022-12-23T05:56:19.306Z,15.10
2022-12-23T05:58:46.843Z,14.83
2022-12-23T06:01:15.784Z,16.67
2022-12-23T06:03:43.622Z,15.43
2022-12-23T06:06:11.367Z,14.77
2022-12-23T06:08:38.915Z,15.93
2022-12-23T06:11:07.196Z,16.70
2022-12-23T06:13:34.814Z,16.47
2022-12-23T06:16:04.142Z,16.17
2022-12-23T06:18:32.243Z,16.73
2022-12-23T06:20:59.873Z,18.37
2022-12-23T06:23:27.587Z,17.10
2022-12-23T06:26:03.917Z,15.97
2022-12-23T06:28:31.618Z,14.97
2022-12-23T06:30:59.306Z,17.90
2022-12-23T06:33:26.915Z,17.27
2022-12-23T06:35:54.564Z,18.97
2022-12-23T06:38:22.211Z,19.40
2022-12-23T06:40:49.875Z,20.20
2022-12-23T06:43:17.804Z,19.77
2022-12-23T06:45:49.928Z,19.07
2022-12-23T06:48:17.908Z,19.33
2022-12-23T06:50:46.452Z,19.37
2022-12-23T06:53:14.129Z,19.63
2022-12-23T06:55:41.828Z,17.60
2022-12-23T06:58:09.516Z,18.67
2022-12-23T07:00:37.527Z,18.83
2022-12-23T07:03:05.249Z,17.80
2022-12-23T07:05:37.526Z,16.60
2022-12-23T07:08:06.493Z,17.10
2022-12-23T07:10:35.177Z,16.07
2022-12-23T07:13:02.754Z,15.20
2022-12-23T07:15:30.363Z,14.20
2022-12-23T07:17:58.470Z,14.27
2022-12-23T07:20:26.629Z,13.27
2022-12-23T07:22:58.320Z,12.10
2022-12-23T07:25:26.230Z,13.07
2022-12-23T07:27:55.598Z,10.70
2022-12-23T07:30:24.193Z,12.37
2022-12-23T07:32:53.423Z,10.83
2022-12-23T07:35:36.473Z,11.20
2022-12-23T07:38:06.278Z,13.43
2022-12-23T07:40:34.092Z,15.40
2022-12-23T07:43:02.441Z,16.40
2022-12-23T07:45:30.894Z,17.97
2022-12-23T07:48:01.464Z,19.23
2022-12-23T07:50:29.656Z,19.30
2022-12-23T07:52:57.279Z,19.70
2022-12-23T07:55:24.963Z,20.47
2022-12-23T07:57:54.051Z,20.77
2022-12-23T08:00:22.657Z,19.90
2022-12-23T08:02:51.455Z,17.70
2022-12-23T08:05:20.141Z,18.53
2022-12-23T08:07:50.126Z,18.00
2022-12-23T08:10:18.125Z,18.10
2022-12-23T08:12:46.639Z,21.80
2022-12-23T08:15:14.477Z,24.03
2022-12-23T08:17:42.045Z,21.97
2022-12-23T08:20:10.602Z,23.47
2022-12-23T08:22:38.531Z,22.60
2022-12-23T08:25:08.482Z,21.23
2022-12-23T08:27:36.106Z,22.23
2022-12-23T08:30:04.193Z,21.00
2022-12-23T08:32:31.785Z,21.57
2022-12-23T08:34:59.329Z,22.00
2022-12-23T08:37:26.992Z,21.97
2022-12-23T08:39:55.157Z,23.07
2022-12-23T08:42:22.776Z,22.30
2022-12-23T08:44:50.866Z,25.10
2022-12-23T08:47:18.470Z,24.87
2022-12-23T08:49:46.085Z,21.50
2022-12-23T08:52:13.704Z,23.23
2022-12-23T08:54:41.303Z,22.57
2022-12-23T08:57:08.910Z,22.30
2022-12-23T08:59:36.616Z,20.20
2022-12-23T09:02:04.428Z,20.87
2022-12-23T09:04:32.111Z,20.40
2022-12-23T09:06:59.721Z,22.80
2022-12-23T09:09:28.084Z,20.13
2022-12-23T09:11:55.721Z,20.53
2022-12-23T09:14:23.272Z,19.87
2022-12-23T09:16:52.623Z,20.43
2022-12-23T09:19:20.904Z,19.03
2022-12-23T09:21:48.519Z,19.67
2022-12-23T09:24:16.672Z,18.93
2022-12-23T09:26:44.418Z,20.23
2022-12-23T09:29:11.973Z,18.10
2022-12-23T09:31:39.711Z,18.43
2022-12-23T09:34:07.422Z,18.33
2022-12-23T09:36:35.212Z,16.87
2022-12-23T09:39:03.544Z,17.13
2022-12-23T09:42:06.972Z,16.70
2022-12-23T09:45:16.341Z,14.90
2022-12-23T09:47:46.902Z,15.17
2022-12-23T09:50:34.651Z,17.10
2022-12-23T09:53:20.689Z,18.27
2022-12-23T09:56:15.536Z,18.20
2022-12-23T09:59:14.417Z,16.13
2022-12-23T10:02:14.929Z,17.30
2022-12-23T10:05:38.874Z,17.20
2022-12-23T10:08:48.966Z,17.50
2022-12-23T10:11:38.126Z,17.67
2022-12-23T10:14:32.171Z,17.83
2022-12-23T10:17:30.538Z,17.20
2022-12-23T10:20:06.045Z,14.73
2022-12-23T10:22:43.252Z,15.20
2022-12-23T10:25:37.066Z,17.00
2022-12-23T10:28:05.304Z,17.37
2022-12-23T10:34:00.739Z,16.90
2022-12-23T10:36:59.092Z,15.93
2022-12-23T10:39:59.979Z,16.70
2022-12-23T10:43:41.404Z,15.20
2022-12-23T10:46:48.661Z,16.53
2022-12-23T10:50:15.906Z,17.70
2022-12-23T10:52:47.261Z,17.23
2022-12-23T10:55:38.511Z,16.07
2022-12-23T10:58:18.534Z,13.93
2022-12-23T11:01:06.980Z,16.20
2022-12-23T11:04:08.970Z,14.63
2022-12-23T11:06:48.431Z,14.77
2022-12-23T11:09:25.521Z,15.03
2022-12-23T11:12:03.195Z,14.90
2022-12-23T11:14:56.776Z,11.90
2022-12-23T11:17:36.238Z,12.77
2022-12-23T11:20:20.707Z,13.90
2022-12-23T11:23:02.160Z,13.50
2022-12-23T11:25:41.381Z,13.80
2022-12-23T11:28:19.632Z,14.00
2022-12-23T11:31:14.584Z,15.17
2022-12-23T11:33:58.215Z,12.40
2022-12-23T11:36:30.688Z,16.00
2022-12-23T11:39:36.122Z,13.23
2022-12-23T11:42:17.237Z,14.60
2022-12-23T11:44:52.113Z,13.20
2022-12-23T11:47:41.189Z,15.00
2022-12-23T11:50:29.199Z,13.10
2022-12-23T11:53:25.364Z,11.93
2022-12-23T11:56:14.830Z,12.57
2022-12-23T11:59:05.324Z,11.97
2022-12-23T12:01:34.666Z,14.17
2022-12-23T12:04:17.865Z,13.40
2022-12-23T12:06:54.304Z,13.27
2022-12-23T12:09:25.907Z,14.40
2022-12-23T12:12:19.469Z,14.40
2022-12-23T12:15:00.493Z,13.57
2022-12-23T12:17:55.561Z,15.20
2022-12-23T12:20:44.407Z,13.27
2022-12-23T12:24:08.259Z,11.93
2022-12-23T12:26:47.179Z,14.60
2022-12-23T12:29:58.883Z,14.80
2022-12-23T12:33:33.476Z,15.03
2022-12-23T12:36:39.856Z,14.43
2022-12-23T12:39:54.508Z,14.60
2022-12-23T12:43:05.744Z,15.17
2022-12-23T12:46:26.960Z,17.20
2022-12-23T12:50:00.320Z,16.03
2022-12-23T12:52:36.301Z,20.17
2022-12-23T12:55:32.073Z,19.33
2022-12-23T12:58:04.995Z,15.47
2022-12-23T13:01:42.235Z,15.40
2022-12-23T13:05:20.118Z,15.70
2022-12-23T13:08:46.368Z,19.47
2022-12-23T13:12:17.573Z,18.87
2022-12-23T13:15:31.568Z,14.53
2022-12-23T13:19:04.715Z,12.30
2022-12-23T13:22:41.907Z,11.17
2022-12-23T13:25:59.969Z,11.87
2022-12-23T13:29:58.729Z,13.77
2022-12-23T13:33:17.839Z,11.60
2022-12-23T13:37:13.421Z,10.70
2022-12-23T13:40:10.912Z,9.20
2022-12-23T13:42:56.063Z,9.47
2022-12-23T13:45:39.759Z,8.50
2022-12-23T13:48:55.237Z,8.53
2022-12-23T13:51:46.356Z,8.73
2022-12-23T13:54:44.063Z,8.07
2022-12-23T13:57:35.617Z,8.33
2022-12-23T14:00:33.559Z,8.93
2022-12-23T14:03:01.440Z,7.93
2022-12-23T14:05:46.943Z,8.50
2022-12-23T14:08:20.442Z,11.13
2022-12-23T14:11:34.272Z,8.97
2022-12-23T14:14:23.173Z,10.73
2022-12-23T14:17:32.557Z,15.57
2022-12-23T14:20:45.226Z,11.10
2022-12-23T14:24:02.466Z,14.00
2022-12-23T14:27:28.492Z,15.73
2022-12-23T14:30:36.458Z,16.30
2022-12-23T14:34:08.207Z,13.60
2022-12-23T14:37:00.565Z,9.87
2022-12-23T14:39:34.228Z,10.33
2022-12-23T14:42:06.734Z,11.10
2022-12-23T14:44:38.956Z,11.27
2022-12-23T14:47:31.936Z,11.70
2022-12-23T14:50:37.658Z,10.23
2022-12-23T14:53:35.607Z,10.20
2022-12-23T14:56:15.435Z,11.10
2022-12-23T14:58:52.765Z,12.17
2022-12-23T15:01:57.223Z,11.23
2022-12-23T15:04:59.220Z,9.40
2022-12-23T15:07:41.216Z,10.27
2022-12-23T15:10:27.014Z,8.97
2022-12-23T15:13:06.462Z,8.60
2022-12-23T15:16:16.576Z,9.20
2022-12-23T15:19:21.993Z,7.37
2022-12-23T15:22:02.009Z,7.70
2022-12-23T15:24:37.699Z,8.17
2022-12-23T15:27:26.717Z,10.63
2022-12-23T15:29:55.674Z,11.67
2022-12-23T15:32:26.859Z,12.77
2022-12-23T15:35:06.652Z,12.40
2022-12-23T15:37:35.365Z,9.90
2022-12-23T15:40:13.391Z,9.90
2022-12-23T15:42:49.646Z,10.67
2022-12-23T15:45:43.081Z,10.20
2022-12-23T15:48:35.207Z,11.40
2022-12-23T15:54:40.128Z,9.20
2022-12-23T15:57:08.255Z,9.67
2022-12-23T15:59:39.764Z,8.13
2022-12-23T16:05:38.777Z,8.90
2022-12-23T16:08:30.285Z,9.97
2022-12-23T16:11:21.228Z,9.67
2022-12-23T16:14:22.437Z,11.17
2022-12-23T16:16:53.348Z,11.70
2022-12-23T16:19:56.388Z,11.00
2022-12-23T16:22:38.670Z,11.50
2022-12-23T16:25:31.882Z,12.87
2022-12-23T16:28:23.156Z,13.60
2022-12-23T16:30:58.689Z,12.23
2022-12-23T16:33:56.758Z,12.77
2022-12-23T16:36:27.091Z,13.13
2022-12-23T16:39:22.509Z,14.00
2022-12-23T16:41:50.971Z,14.87
2022-12-23T16:44:18.684Z,14.27
2022-12-23T16:46:51.749Z,15.87
2022-12-23T16:49:32.995Z,15.73
2022-12-23T16:52:14.240Z,15.70
2022-12-23T16:54:42.732Z,16.00
2022-12-23T16:57:11.083Z,17.10
2022-12-23T16:59:41.083Z,15.90
2022-12-23T17:02:28.252Z,16.60
2022-12-23T17:04:55.889Z,15.63
2022-12-23T17:07:25.132Z,16.70
2022-12-23T17:09:52.959Z,16.07
2022-12-23T17:12:20.764Z,16.63
2022-12-23T17:14:48.403Z,17.40
2022-12-23T17:17:16.578Z,16.87
2022-12-23T17:19:44.225Z,18.77
2022-12-23T17:22:13.687Z,18.43
2022-12-23T17:24:41.259Z,19.87
2022-12-23T17:27:18.424Z,20.30
2022-12-23T17:29:46.574Z,20.60
2022-12-23T17:32:18.833Z,20.50
2022-12-23T17:34:51.777Z,20.20
2022-12-23T17:37:23.115Z,18.77
2022-12-23T17:39:50.951Z,16.00
2022-12-23T17:42:25.786Z,18.20
2022-12-23T17:44:53.709Z,15.63
2022-12-23T17:47:23.314Z,16.50
2022-12-23T17:49:52.073Z,16.53
2022-12-23T17:52:24.328Z,15.23
2022-12-23T17:54:52.617Z,13.83
2022-12-23T17:57:26.824Z,14.27
2022-12-23T17:59:57.028Z,12.83
2022-12-23T18:02:35.570Z,11.00
2022-12-23T18:05:26.622Z,14.00
2022-12-23T18:08:00.638Z,12.10
2022-12-23T18:10:39.036Z,14.27
2022-12-23T18:13:19.583Z,14.13
2022-12-23T18:15:47.866Z,14.73
2022-12-23T18:18:32.101Z,14.20
2022-12-23T18:21:03.289Z,13.80
2022-12-23T18:23:34.620Z,15.60
2022-12-23T18:26:02.248Z,14.87
2022-12-23T18:28:29.974Z,13.07
2022-12-23T18:30:58.600Z,13.30
2022-12-23T18:33:28.923Z,13.53
2022-12-23T18:35:57.341Z,14.43
2022-12-23T18:38:24.985Z,17.20
2022-12-23T18:40:54.443Z,16.83
2022-12-23T18:43:25.674Z,13.53
2022-12-23T18:45:54.240Z,14.20
2022-12-23T18:48:22.296Z,12.90
2022-12-23T18:50:50.039Z,12.00
2022-12-23T18:53:24.916Z,10.00
2022-12-23T18:55:54.624Z,9.70
2022-12-23T18:58:23.665Z,10.97
2022-12-23T19:00:53.270Z,8.97
2022-12-23T19:03:30.931Z,8.27
2022-12-23T19:06:06.742Z,8.90
2022-12-23T19:08:37.780Z,8.50
2022-12-23T19:11:21.224Z,6.90
2022-12-23T19:13:49.077Z,6.80
2022-12-23T19:16:21.521Z,8.07
2022-12-23T19:18:51.081Z,6.60
2022-12-23T19:21:19.585Z,8.47
2022-12-23T19:23:47.178Z,7.47
2022-12-23T19:26:15.752Z,8.00
2022-12-23T19:28:43.654Z,8.20
2022-12-23T19:31:18.192Z,10.80
2022-12-23T19:33:47.607Z,9.00
2022-12-23T19:36:24.776Z,9.73
2022-12-23T19:38:53.129Z,10.00
2022-12-23T19:41:20.787Z,10.60
2022-12-23T19:43:48.404Z,9.70
2022-12-23T19:46:17.610Z,8.80
2022-12-23T19:48:54.046Z,10.67
2022-12-23T19:51:21.755Z,8.87
2022-12-23T19:53:52.826Z,8.33
2022-12-23T19:56:21.987Z,8.40
2022-12-23T19:58:50.566Z,9.27
2022-12-23T20:01:25.185Z,10.20
2022-12-23T20:03:56.453Z,9.73
2022-12-23T20:06:34.669Z,7.73
2022-12-23T20:09:06.536Z,9.30
2022-12-23T20:11:46.366Z,9.40
2022-12-23T20:14:19.101Z,9.67
2022-12-23T20:16:48.432Z,9.70
2022-12-23T20:19:17.987Z,8.90
2022-12-23T20:21:45.955Z,10.50
2022-12-23T20:24:16.039Z,7.40
2022-12-23T20:26:43.918Z,9.07
2022-12-23T20:29:11.882Z,7.80
2022-12-23T20:31:40.054Z,8.53
2022-12-23T20:34:16.586Z,7.40
2022-12-23T20:36:44.961Z,9.03
2022-12-23T20:39:13.084Z,7.40
2022-12-23T20:41:40.647Z,6.43
2022-12-23T20:46:55.928Z,8.10
2022-12-23T20:49:24.360Z,5.67
2022-12-23T20:51:52.557Z,6.07
2022-12-23T20:54:22.742Z,7.40
2022-12-23T20:56:52.668Z,5.80
2022-12-23T20:59:20.390Z,4.70
2022-12-23T21:01:48.009Z,7.00
2022-12-23T21:04:17.772Z,5.30
2022-12-23T21:06:46.135Z,5.93
2022-12-23T21:09:15.803Z,6.70
2022-12-23T21:11:48.472Z,6.80
2022-12-23T21:14:17.396Z,6.70
2022-12-23T21:16:45.552Z,5.00
2022-12-23T21:19:25.932Z,6.77
2022-12-23T21:21:54.155Z,6.30
2022-12-23T21:24:21.834Z,5.90
2022-12-23T21:26:57.099Z,6.70
2022-12-23T21:29:26.600Z,4.87
2022-12-23T21:31:55.196Z,5.27
2022-12-23T21:34:23.308Z,5.23
2022-12-23T21:36:51.010Z,5.37
2022-12-23T21:39:18.926Z,7.07
2022-12-23T21:41:46.527Z,6.07
2022-12-23T21:44:15.014Z,6.43
2022-12-23T21:46:42.956Z,7.37
2022-12-23T21:49:11.656Z,7.80
2022-12-23T21:51:41.285Z,7.60
2022-12-23T21:54:12.524Z,7.83
2022-12-23T21:56:41.674Z,9.40
2022-12-23T21:59:15.013Z,7.53
2022-12-23T22:01:44.147Z,7.47
2022-12-23T22:04:12.648Z,7.03
2022-12-23T22:06:45.184Z,6.20
2022-12-23T22:09:19.597Z,6.47
2022-12-23T22:11:48.446Z,6.20
2022-12-23T22:14:19.738Z,7.27
2022-12-23T22:16:47.529Z,6.10
2022-12-23T22:19:15.395Z,5.00
2022-12-23T22:21:43.091Z,5.80
2022-12-23T22:24:11.813Z,5.60
2022-12-23T22:26:41.205Z,7.10
2022-12-23T22:29:10.654Z,6.33
2022-12-23T22:31:50.541Z,5.67
2022-12-23T22:34:23.279Z,6.40
2022-12-23T22:36:51.401Z,6.30
2022-12-23T22:39:22.022Z,6.37
2022-12-23T22:41:53.391Z,6.03
2022-12-23T22:44:21.697Z,6.03
2022-12-23T22:46:49.953Z,7.33
2022-12-23T22:49:18.171Z,6.83
2022-12-23T22:51:46.447Z,7.80
2022-12-23T22:54:14.441Z,6.77
2022-12-23T22:56:42.221Z,8.20
2022-12-23T22:59:25.061Z,7.67
2022-12-23T23:01:54.509Z,7.13
2022-12-23T23:04:22.227Z,8.10
2022-12-23T23:06:59.411Z,7.60
2022-12-23T23:09:29.051Z,7.20
2022-12-23T23:11:56.686Z,7.43
2022-12-23T23:14:24.452Z,6.10
2022-12-23T23:16:52.215Z,5.47
2022-12-23T23:19:20.687Z,6.20
2022-12-23T23:21:48.928Z,5.70
2022-12-23T23:24:16.646Z,7.37
2022-12-23T23:26:44.238Z,5.30
2022-12-23T23:29:11.875Z,5.23
2022-12-23T23:31:42.368Z,5.53
2022-12-23T23:34:13.666Z,5.93
2022-12-23T23:36:42.394Z,4.77
2022-12-23T23:39:13.232Z,5.13
2022-12-23T23:41:41.470Z,5.60
2022-12-23T23:44:10.504Z,5.50
2022-12-23T23:46:39.429Z,4.33
2022-12-23T23:49:07.316Z,6.57
2022-12-23T23:51:35.067Z,6.43
2022-12-23T23:54:02.929Z,6.93
2022-12-23T23:56:37.464Z,5.00
2022-12-23T23:59:06.571Z,5.43
